createdAt,value
2022-10-17T00:02:16.488Z,101948.66
2022-10-17T00:04:42.953Z,101939.22
2022-10-17T00:07:09.375Z,101940.41
2022-10-17T00:09:35.962Z,101946.00
2022-10-17T00:12:02.821Z,101948.59
2022-10-17T00:14:29.401Z,101948.09
2022-10-17T00:16:55.853Z,101947.63
2022-10-17T00:19:22.256Z,101948.94
2022-10-17T00:21:49.649Z,101953.25
2022-10-17T00:24:16.072Z,101957.06
2022-10-17T00:26:42.471Z,101956.56
2022-10-17T00:29:08.992Z,101958.63
2022-10-17T00:31:35.749Z,101963.06
2022-10-17T00:34:02.229Z,101959.19
2022-10-17T00:36:29.408Z,101957.91
2022-10-17T00:38:58.433Z,101961.06
2022-10-17T00:41:29.247Z,101960.59
2022-10-17T00:44:02.028Z,101960.72
2022-10-17T00:46:31.204Z,101960.84
2022-10-17T00:49:00.761Z,101971.22
2022-10-17T00:51:49.553Z,101973.81
2022-10-17T00:54:19.116Z,101967.31
2022-10-17T00:56:47.778Z,101975.09
2022-10-17T00:59:16.036Z,101972.09
2022-10-17T01:01:49.380Z,101978.19
2022-10-17T01:04:15.857Z,101971.44
2022-10-17T01:06:42.265Z,101966.00
2022-10-17T01:09:08.728Z,101968.94
2022-10-17T01:11:56.912Z,101973.72
2022-10-17T01:14:57.233Z,101964.75
2022-10-17T01:17:29.568Z,101963.81
2022-10-17T01:20:14.788Z,101965.66
2022-10-17T01:22:50.365Z,101961.75
2022-10-17T01:25:35.024Z,101966.94
2022-10-17T01:28:19.909Z,101971.50
2022-10-17T01:30:49.495Z,101968.00
2022-10-17T01:33:22.315Z,101958.09
2022-10-17T01:36:01.822Z,101960.28
2022-10-17T01:38:41.986Z,101969.47
2022-10-17T01:41:33.440Z,101971.00
2022-10-17T01:44:04.977Z,101964.56
2022-10-17T01:46:40.194Z,101966.38
2022-10-17T01:49:10.580Z,101970.03
2022-10-17T01:51:43.228Z,101961.91
2022-10-17T01:54:19.605Z,101962.53
2022-10-17T01:56:48.839Z,101967.88
2022-10-17T01:59:22.394Z,101977.66
2022-10-17T02:01:52.836Z,101973.94
2022-10-17T02:04:20.256Z,101978.16
2022-10-17T02:06:46.728Z,101975.91
2022-10-17T02:09:25.405Z,101976.53
2022-10-17T02:12:06.954Z,101968.75
2022-10-17T02:15:11.955Z,101970.66
2022-10-17T02:18:17.800Z,101973.59
2022-10-17T02:20:59.408Z,101973.50
2022-10-17T02:23:38.365Z,101974.09
2022-10-17T02:26:19.285Z,101976.84
2022-10-17T02:29:20.669Z,101981.78
2022-10-17T02:31:56.776Z,101980.31
2022-10-17T02:34:38.812Z,101978.84
2022-10-17T02:37:08.395Z,101981.59
2022-10-17T02:39:36.177Z,101970.47
2022-10-17T02:42:07.774Z,101971.06
2022-10-17T02:44:37.153Z,101972.69
2022-10-17T02:47:36.024Z,101970.75
2022-10-17T02:50:02.972Z,101980.03
2022-10-17T02:53:01.271Z,101969.38
2022-10-17T02:55:32.417Z,101968.41
2022-10-17T02:58:11.612Z,101968.69
2022-10-17T03:00:40.698Z,101970.94
2022-10-17T03:03:26.041Z,101976.09
2022-10-17T03:05:52.784Z,101980.84
2022-10-17T03:08:19.809Z,101976.63
2022-10-17T03:10:46.233Z,101978.56
2022-10-17T03:13:13.598Z,101988.44
2022-10-17T03:15:40.284Z,101986.91
2022-10-17T03:18:06.731Z,101979.31
2022-10-17T03:20:33.692Z,101978.47
2022-10-17T03:23:00.487Z,101982.13
2022-10-17T03:25:27.165Z,101995.84
2022-10-17T03:27:53.585Z,101995.41
2022-10-17T03:30:20.721Z,101993.59
2022-10-17T03:32:47.143Z,102006.00
2022-10-17T03:35:14.970Z,102007.19
2022-10-17T03:37:41.726Z,102010.56
2022-10-17T03:40:08.549Z,102014.19
2022-10-17T03:42:34.975Z,102012.94
2022-10-17T03:45:01.432Z,102026.06
2022-10-17T03:47:29.041Z,102025.44
2022-10-17T03:49:55.745Z,102027.09
2022-10-17T03:52:22.317Z,102028.50
2022-10-17T03:54:50.830Z,102043.75
2022-10-17T03:57:18.347Z,102039.06
2022-10-17T03:59:44.856Z,102047.63
2022-10-17T04:02:11.402Z,102046.13
2022-10-17T04:04:37.814Z,102046.41
2022-10-17T04:07:04.239Z,102045.88
2022-10-17T04:09:30.788Z,102052.28
2022-10-17T04:11:57.240Z,102051.81
2022-10-17T04:14:23.689Z,102055.78
2022-10-17T04:16:50.129Z,102057.91
2022-10-17T04:19:16.546Z,102066.09
2022-10-17T04:21:42.999Z,102064.25
2022-10-17T04:24:11.726Z,102067.56
2022-10-17T04:26:38.166Z,102073.06
2022-10-17T04:29:04.620Z,102073.97
2022-10-17T04:31:31.086Z,102077.75
2022-10-17T04:33:57.636Z,102083.84
2022-10-17T04:36:24.137Z,102080.34
2022-10-17T04:38:50.528Z,102084.78
2022-10-17T04:41:18.364Z,102083.56
2022-10-17T04:43:48.469Z,102083.44
2022-10-17T04:46:17.564Z,102084.34
2022-10-17T04:48:43.988Z,102077.34
2022-10-17T04:51:13.573Z,102087.97
2022-10-17T04:53:41.140Z,102091.31
2022-10-17T04:56:13.152Z,102093.91
2022-10-17T04:58:40.075Z,102083.72
2022-10-17T05:01:08.117Z,102088.28
2022-10-17T05:03:35.602Z,102089.84
2022-10-17T05:06:07.171Z,102092.88
2022-10-17T05:08:33.955Z,102095.03
2022-10-17T05:11:01.039Z,102096.25
2022-10-17T05:13:27.483Z,102104.91
2022-10-17T05:15:54.091Z,102103.22
2022-10-17T05:18:20.504Z,102104.44
2022-10-17T05:20:46.916Z,102099.84
2022-10-17T05:23:13.367Z,102101.06
2022-10-17T05:25:39.808Z,102097.47
2022-10-17T05:28:06.194Z,102095.63
2022-10-17T05:30:35.309Z,102102.78
2022-10-17T05:33:04.056Z,102100.97
2022-10-17T05:35:30.504Z,102102.03
2022-10-17T05:37:58.402Z,102092.28
2022-10-17T05:40:24.813Z,102098.84
2022-10-17T05:42:52.065Z,102100.66
2022-10-17T05:45:18.610Z,102106.28
2022-10-17T05:47:45.082Z,102109.31
2022-10-17T05:50:11.603Z,102104.75
2022-10-17T05:52:38.080Z,102107.97
2022-10-17T05:55:05.708Z,102108.41
2022-10-17T05:57:32.184Z,102109.59
2022-10-17T05:59:58.811Z,102114.47
2022-10-17T06:02:25.412Z,102119.03
2022-10-17T06:04:51.963Z,102119.22
2022-10-17T06:07:18.469Z,102123.31
2022-10-17T06:12:12.249Z,102135.19
2022-10-17T06:14:38.740Z,102141.59
2022-10-17T06:17:05.180Z,102144.63
2022-10-17T06:19:31.655Z,102150.41
2022-10-17T06:21:58.074Z,102157.72
2022-10-17T06:24:24.535Z,102155.56
2022-10-17T06:26:51.157Z,102155.44
2022-10-17T06:29:17.610Z,102156.19
2022-10-17T06:31:44.120Z,102158.63
2022-10-17T06:34:10.658Z,102164.81
2022-10-17T06:36:37.149Z,102161.59
2022-10-17T06:39:03.766Z,102165.00
2022-10-17T06:41:30.237Z,102172.91
2022-10-17T06:43:56.708Z,102178.06
2022-10-17T06:46:26.592Z,102173.66
2022-10-17T06:48:53.328Z,102181.28
2022-10-17T06:51:19.786Z,102182.19
2022-10-17T06:53:47.048Z,102187.56
2022-10-17T06:56:13.550Z,102187.53
2022-10-17T06:58:40.854Z,102184.78
2022-10-17T07:01:10.183Z,102185.25
2022-10-17T07:03:37.651Z,102182.97
2022-10-17T07:06:04.969Z,102192.09
2022-10-17T07:08:31.416Z,102196.97
2022-10-17T07:10:58.606Z,102201.06
2022-10-17T07:13:25.457Z,102189.19
2022-10-17T07:15:52.001Z,102194.47
2022-10-17T07:18:18.445Z,102205.56
2022-10-17T07:20:53.032Z,102205.41
2022-10-17T07:23:19.439Z,102204.31
2022-10-17T07:25:45.868Z,102208.13
2022-10-17T07:28:12.373Z,102213.91
2022-10-17T07:30:38.797Z,102215.38
2022-10-17T07:33:05.205Z,102214.78
2022-10-17T07:35:31.935Z,102220.25
2022-10-17T07:37:58.406Z,102222.66
2022-10-17T07:40:24.841Z,102215.31
2022-10-17T07:42:51.267Z,102221.41
2022-10-17T07:45:17.761Z,102222.91
2022-10-17T07:47:44.248Z,102227.00
2022-10-17T07:50:10.849Z,102229.59
2022-10-17T07:52:37.326Z,102228.69
2022-10-17T07:55:04.059Z,102223.94
2022-10-17T07:57:30.494Z,102226.34
2022-10-17T07:59:56.991Z,102232.53
2022-10-17T08:02:26.110Z,102232.19
2022-10-17T08:04:53.332Z,102233.81
2022-10-17T08:07:25.334Z,102228.44
2022-10-17T08:09:54.980Z,102229.44
2022-10-17T08:12:21.968Z,102237.34
2022-10-17T08:14:48.368Z,102225.94
2022-10-17T08:17:14.889Z,102230.34
2022-10-17T08:19:41.454Z,102228.22
2022-10-17T08:22:08.351Z,102233.28
2022-10-17T08:24:35.288Z,102243.69
2022-10-17T08:27:01.736Z,102229.56
2022-10-17T08:29:28.274Z,102242.84
2022-10-17T08:32:00.848Z,102238.69
2022-10-17T08:34:28.468Z,102242.84
2022-10-17T08:36:54.969Z,102245.56
2022-10-17T08:39:21.391Z,102239.56
2022-10-17T08:41:59.524Z,102245.31
2022-10-17T08:44:47.571Z,102246.66
2022-10-17T08:47:21.222Z,102241.13
2022-10-17T08:49:52.451Z,102240.13
2022-10-17T08:52:47.895Z,102238.72
2022-10-17T08:55:42.813Z,102246.91
2022-10-17T08:58:19.979Z,102236.13
2022-10-17T09:00:55.784Z,102244.63
2022-10-17T09:03:49.922Z,102249.22
2022-10-17T09:06:20.663Z,102241.19
2022-10-17T09:09:07.025Z,102243.59
2022-10-17T09:11:54.666Z,102249.81
2022-10-17T09:15:18.544Z,102241.28
2022-10-17T09:17:52.091Z,102244.19
2022-10-17T09:20:24.345Z,102249.16
2022-10-17T09:23:01.417Z,102251.28
2022-10-17T09:25:28.231Z,102240.91
2022-10-17T09:28:06.684Z,102243.63
2022-10-17T09:30:51.607Z,102246.41
2022-10-17T09:33:35.327Z,102245.09
2022-10-17T09:36:17.552Z,102244.59
2022-10-17T09:38:49.702Z,102249.00
2022-10-17T09:41:43.536Z,102251.25
2022-10-17T09:44:24.527Z,102251.41
2022-10-17T09:47:02.856Z,102253.38
2022-10-17T09:49:34.171Z,102253.00
2022-10-17T09:52:04.270Z,102253.34
2022-10-17T09:55:02.681Z,102252.84
2022-10-17T09:57:29.174Z,102249.28
2022-10-17T10:00:02.014Z,102248.53
2022-10-17T10:02:31.289Z,102248.94
2022-10-17T10:05:05.941Z,102243.72
2022-10-17T10:07:38.657Z,102246.38
2022-10-17T10:10:26.246Z,102250.34
2022-10-17T10:13:16.152Z,102251.78
2022-10-17T10:15:48.088Z,102250.69
2022-10-17T10:21:15.749Z,102247.91
2022-10-17T10:24:04.925Z,102249.66
2022-10-17T10:26:50.686Z,102248.91
2022-10-17T10:29:38.254Z,102246.53
2022-10-17T10:32:19.061Z,102254.78
2022-10-17T10:34:52.819Z,102249.94
2022-10-17T10:37:23.128Z,102251.72
2022-10-17T10:39:53.109Z,102250.66
2022-10-17T10:42:33.526Z,102250.41
2022-10-17T10:45:29.224Z,102244.47
2022-10-17T10:47:58.932Z,102245.66
2022-10-17T10:50:45.062Z,102241.53
2022-10-17T10:53:41.639Z,102243.22
2022-10-17T10:56:17.681Z,102234.66
2022-10-17T10:58:55.940Z,102236.09
2022-10-17T11:01:48.823Z,102239.41
2022-10-17T11:04:44.247Z,102230.88
2022-10-17T11:07:17.634Z,102237.19
2022-10-17T11:10:00.632Z,102234.91
2022-10-17T11:12:52.784Z,102231.19
2022-10-17T11:15:29.053Z,102226.31
2022-10-17T11:18:00.353Z,102224.13
2022-10-17T11:20:48.778Z,102219.84
2022-10-17T11:23:25.988Z,102217.44
2022-10-17T11:25:54.592Z,102218.00
2022-10-17T11:28:23.701Z,102220.03
2022-10-17T11:31:08.482Z,102213.91
2022-10-17T11:33:44.090Z,102213.69
2022-10-17T11:36:12.452Z,102213.91
2022-10-17T11:38:47.794Z,102207.78
2022-10-17T11:41:20.897Z,102204.94
2022-10-17T11:44:20.224Z,102204.94
2022-10-17T11:46:52.559Z,102200.25
2022-10-17T11:49:24.130Z,102197.75
2022-10-17T11:52:00.376Z,102201.16
2022-10-17T11:54:35.161Z,102199.34
2022-10-17T11:57:16.625Z,102192.94
2022-10-17T11:59:57.397Z,102193.38
2022-10-17T12:02:36.692Z,102181.97
2022-10-17T12:05:19.248Z,102191.41
2022-10-17T12:07:58.780Z,102188.03
2022-10-17T12:10:37.094Z,102186.50
2022-10-17T12:13:28.330Z,102178.56
2022-10-17T12:15:56.409Z,102180.63
2022-10-17T12:18:29.502Z,102180.50
2022-10-17T12:21:00.839Z,102178.91
2022-10-17T12:23:29.385Z,102173.44
2022-10-17T12:26:08.283Z,102174.38
2022-10-17T12:28:37.870Z,102173.75
2022-10-17T12:31:13.006Z,102174.13
2022-10-17T12:33:48.645Z,102167.41
2022-10-17T12:36:27.450Z,102167.22
2022-10-17T12:39:03.167Z,102161.69
2022-10-17T12:41:38.772Z,102162.56
2022-10-17T12:44:14.707Z,102163.06
2022-10-17T12:46:52.357Z,102156.06
2022-10-17T12:49:42.846Z,102150.25
2022-10-17T12:52:24.114Z,102148.59
2022-10-17T12:55:07.516Z,102156.16
2022-10-17T12:57:52.362Z,102148.88
2022-10-17T13:00:31.149Z,102147.84
2022-10-17T13:03:14.921Z,102139.56
2022-10-17T13:05:47.099Z,102132.94
2022-10-17T13:08:19.568Z,102132.94
2022-10-17T13:10:51.737Z,102127.16
2022-10-17T13:13:23.617Z,102129.66
2022-10-17T13:15:51.412Z,102125.78
2022-10-17T13:18:26.391Z,102123.50
2022-10-17T13:21:00.834Z,102127.94
2022-10-17T13:23:31.939Z,102127.16
2022-10-17T13:26:07.355Z,102121.69
2022-10-17T13:28:39.057Z,102113.13
2022-10-17T13:31:06.027Z,102105.97
2022-10-17T13:33:35.933Z,102108.53
2022-10-17T13:36:06.707Z,102104.78
2022-10-17T13:38:35.693Z,102109.22
2022-10-17T13:41:34.447Z,102109.63
2022-10-17T13:44:00.899Z,102104.38
2022-10-17T13:46:39.779Z,102103.66
2022-10-17T13:49:25.854Z,102107.59
2022-10-17T13:51:55.854Z,102109.44
2022-10-17T13:54:34.155Z,102096.34
2022-10-17T13:57:01.776Z,102105.69
2022-10-17T13:59:39.868Z,102106.00
2022-10-17T14:02:13.854Z,102100.44
2022-10-17T14:05:11.631Z,102103.47
2022-10-17T14:07:58.055Z,102104.59
2022-10-17T14:10:25.189Z,102099.44
2022-10-17T14:12:53.678Z,102092.69
2022-10-17T14:15:23.425Z,102095.09
2022-10-17T14:17:57.067Z,102093.72
2022-10-17T14:20:57.522Z,102095.09
2022-10-17T14:23:38.742Z,102088.88
2022-10-17T14:26:28.188Z,102085.03
2022-10-17T14:29:06.164Z,102079.59
2022-10-17T14:31:35.946Z,102085.97
2022-10-17T14:34:04.542Z,102082.22
2022-10-17T14:36:38.049Z,102076.97
2022-10-17T14:39:13.407Z,102083.31
2022-10-17T14:41:44.483Z,102079.59
2022-10-17T14:44:32.570Z,102082.31
2022-10-17T14:47:18.175Z,102088.28
2022-10-17T14:49:51.637Z,102088.28
2022-10-17T14:52:18.851Z,102084.97
2022-10-17T14:54:50.142Z,102080.38
2022-10-17T14:57:42.616Z,102079.88
2022-10-17T15:00:14.197Z,102079.19
2022-10-17T15:02:40.621Z,102077.25
2022-10-17T15:05:12.086Z,102076.94
2022-10-17T15:07:39.626Z,102078.34
2022-10-17T15:10:06.991Z,102074.28
2022-10-17T15:12:33.414Z,102069.66
2022-10-17T15:14:59.885Z,102069.25
2022-10-17T15:17:34.500Z,102066.63
2022-10-17T15:20:01.238Z,102067.34
2022-10-17T15:22:28.028Z,102066.41
2022-10-17T15:24:54.722Z,102069.66
2022-10-17T15:27:24.256Z,102067.81
2022-10-17T15:29:51.653Z,102070.44
2022-10-17T15:32:18.217Z,102064.19
2022-10-17T15:34:44.940Z,102069.03
2022-10-17T15:37:22.016Z,102065.16
2022-10-17T15:39:54.130Z,102072.50
2022-10-17T15:42:28.806Z,102071.38
2022-10-17T15:44:56.064Z,102078.25
2022-10-17T15:47:29.392Z,102073.47
2022-10-17T15:49:56.998Z,102072.72
2022-10-17T15:52:23.759Z,102071.25
2022-10-17T15:54:50.821Z,102071.53
2022-10-17T15:57:23.805Z,102063.16
2022-10-17T15:59:51.840Z,102073.16
2022-10-17T16:02:20.175Z,102068.38
2022-10-17T16:04:47.995Z,102069.97
2022-10-17T16:07:14.519Z,102071.63
2022-10-17T16:09:40.961Z,102077.28
2022-10-17T16:12:14.105Z,102076.19
2022-10-17T16:14:40.637Z,102082.69
2022-10-17T16:17:12.756Z,102084.03
2022-10-17T16:19:39.174Z,102082.66
2022-10-17T16:22:06.597Z,102078.72
2022-10-17T16:24:33.185Z,102081.78
2022-10-17T16:26:59.577Z,102083.03
2022-10-17T16:29:25.997Z,102082.56
2022-10-17T16:31:52.419Z,102093.59
2022-10-17T16:34:18.829Z,102088.94
2022-10-17T16:36:45.298Z,102093.00
2022-10-17T16:39:11.710Z,102096.31
2022-10-17T16:41:39.411Z,102094.25
2022-10-17T16:44:08.213Z,102101.66
2022-10-17T16:46:37.238Z,102102.75
2022-10-17T16:49:05.500Z,102104.13
2022-10-17T16:51:33.721Z,102101.28
2022-10-17T16:54:00.276Z,102108.88
2022-10-17T16:56:32.575Z,102110.38
2022-10-17T16:59:00.013Z,102107.41
2022-10-17T17:01:29.167Z,102106.13
2022-10-17T17:03:56.346Z,102116.34
2022-10-17T17:06:26.379Z,102111.78
2022-10-17T17:08:53.644Z,102107.94
2022-10-17T17:11:21.709Z,102110.28
2022-10-17T17:13:48.784Z,102109.94
2022-10-17T17:16:24.533Z,102115.47
2022-10-17T17:18:59.773Z,102123.84
2022-10-17T17:21:27.770Z,102131.44
2022-10-17T17:23:58.178Z,102125.59
2022-10-17T17:26:26.182Z,102125.13
2022-10-17T17:28:54.198Z,102128.13
2022-10-17T17:31:26.625Z,102131.31
2022-10-17T17:36:29.839Z,102132.63
2022-10-17T17:38:59.442Z,102125.09
2022-10-17T17:41:26.737Z,102120.88
2022-10-17T17:43:54.084Z,102134.06
2022-10-17T17:46:21.798Z,102129.41
2022-10-17T17:48:49.766Z,102133.47
2022-10-17T17:51:18.533Z,102136.75
2022-10-17T17:53:45.497Z,102135.56
2022-10-17T17:56:17.997Z,102140.13
2022-10-17T17:58:46.411Z,102134.66
2022-10-17T18:01:21.368Z,102135.72
2022-10-17T18:03:50.351Z,102134.31
2022-10-17T18:06:18.687Z,102138.38
2022-10-17T18:08:47.344Z,102138.38
2022-10-17T18:11:17.048Z,102136.53
2022-10-17T18:13:46.223Z,102140.63
2022-10-17T18:16:13.289Z,102142.84
2022-10-17T18:18:41.663Z,102142.66
2022-10-17T18:21:09.932Z,102149.59
2022-10-17T18:23:40.880Z,102150.09
2022-10-17T18:26:07.515Z,102156.50
2022-10-17T18:28:36.016Z,102157.69
2022-10-17T18:31:15.438Z,102157.72
2022-10-17T18:33:44.469Z,102158.63
2022-10-17T18:36:14.058Z,102162.78
2022-10-17T18:38:40.751Z,102160.59
2022-10-17T18:41:08.420Z,102155.13
2022-10-17T18:43:36.656Z,102157.97
2022-10-17T18:46:12.388Z,102157.47
2022-10-17T18:48:42.980Z,102156.66
2022-10-17T18:51:09.429Z,102155.91
2022-10-17T18:53:39.829Z,102154.75
2022-10-17T18:56:06.610Z,102153.56
2022-10-17T18:58:33.056Z,102164.47
2022-10-17T19:01:09.645Z,102167.09
2022-10-17T19:03:36.151Z,102166.19
2022-10-17T19:06:04.348Z,102168.38
2022-10-17T19:08:30.998Z,102163.97
2022-10-17T19:10:57.408Z,102170.59
2022-10-17T19:13:23.845Z,102168.13
2022-10-17T19:15:50.286Z,102174.97
2022-10-17T19:18:16.702Z,102176.03
2022-10-17T19:20:43.153Z,102166.75
2022-10-17T19:23:09.581Z,102169.31
2022-10-17T19:25:36.005Z,102167.59
2022-10-17T19:28:02.477Z,102167.69
2022-10-17T19:30:28.971Z,102167.09
2022-10-17T19:32:55.402Z,102168.00
2022-10-17T19:35:22.045Z,102173.25
2022-10-17T19:37:48.439Z,102175.59
2022-10-17T19:40:14.933Z,102168.88
2022-10-17T19:42:41.370Z,102162.13
2022-10-17T19:45:08.813Z,102167.94
2022-10-17T19:47:35.729Z,102159.63
2022-10-17T19:50:05.129Z,102162.13
2022-10-17T19:52:31.838Z,102153.28
2022-10-17T19:54:58.529Z,102163.34
2022-10-17T19:57:25.755Z,102160.34
2022-10-17T19:59:55.124Z,102155.16
2022-10-17T20:02:22.535Z,102152.31
2022-10-17T20:04:59.883Z,102159.59
2022-10-17T20:07:35.349Z,102151.91
2022-10-17T20:10:01.806Z,102151.25
2022-10-17T20:12:28.782Z,102151.59
2022-10-17T20:14:55.425Z,102147.81
2022-10-17T20:17:21.829Z,102154.19
2022-10-17T20:19:48.268Z,102146.66
2022-10-17T20:22:14.692Z,102148.19
2022-10-17T20:24:41.296Z,102156.16
2022-10-17T20:27:08.125Z,102158.59
2022-10-17T20:29:34.536Z,102155.19
2022-10-17T20:32:01.137Z,102163.38
2022-10-17T20:34:27.718Z,102173.97
2022-10-17T20:36:54.133Z,102167.13
2022-10-17T20:39:21.052Z,102177.63
2022-10-17T20:41:47.729Z,102177.06
2022-10-17T20:44:14.229Z,102177.06
2022-10-17T20:46:48.455Z,102185.69
2022-10-17T20:49:20.050Z,102176.84
2022-10-17T20:51:46.819Z,102184.13
2022-10-17T20:54:13.344Z,102182.84
2022-10-17T20:56:40.026Z,102187.47
2022-10-17T20:59:12.104Z,102193.47
2022-10-17T21:01:38.556Z,102193.03
2022-10-17T21:06:53.322Z,102186.00
2022-10-17T21:09:20.257Z,102180.22
2022-10-17T21:11:48.086Z,102188.00
2022-10-17T21:14:16.629Z,102183.56
2022-10-17T21:16:43.495Z,102187.84
2022-10-17T21:19:11.559Z,102187.44
2022-10-17T21:21:40.903Z,102181.75
2022-10-17T21:24:12.915Z,102184.88
2022-10-17T21:26:41.088Z,102180.47
2022-10-17T21:29:09.203Z,102186.66
2022-10-17T21:31:40.438Z,102183.00
2022-10-17T21:34:09.247Z,102177.97
2022-10-17T21:36:35.727Z,102170.44
2022-10-17T21:39:02.541Z,102177.31
2022-10-17T21:41:29.884Z,102182.41
2022-10-17T21:44:01.185Z,102185.59
2022-10-17T21:46:28.320Z,102178.09
2022-10-17T21:48:55.404Z,102178.59
2022-10-17T21:51:24.225Z,102172.19
2022-10-17T21:53:52.128Z,102174.47
2022-10-17T21:56:20.835Z,102173.00
2022-10-17T21:58:48.406Z,102178.56
2022-10-17T22:01:18.041Z,102177.03
2022-10-17T22:03:46.912Z,102175.56
2022-10-17T22:09:27.863Z,102176.25
2022-10-17T22:11:56.549Z,102172.72
2022-10-17T22:14:24.761Z,102174.41
2022-10-17T22:16:51.473Z,102175.00
2022-10-17T22:19:24.913Z,102170.44
2022-10-17T22:21:51.473Z,102173.19
2022-10-17T22:24:19.361Z,102172.66
2022-10-17T22:26:46.528Z,102177.09
2022-10-17T22:29:13.425Z,102173.72
2022-10-17T22:31:39.969Z,102180.44
2022-10-17T22:34:07.485Z,102165.50
2022-10-17T22:36:35.400Z,102166.72
2022-10-17T22:39:01.858Z,102170.06
2022-10-17T22:41:28.675Z,102168.75
2022-10-17T22:43:55.181Z,102163.13
2022-10-17T22:46:21.716Z,102164.03
2022-10-17T22:48:48.128Z,102157.78
2022-10-17T22:51:14.922Z,102155.91
2022-10-17T22:53:41.420Z,102150.50
2022-10-17T22:56:16.645Z,102150.84
2022-10-17T22:58:43.425Z,102160.91
2022-10-17T23:01:14.557Z,102157.72
2022-10-17T23:03:41.266Z,102157.84
2022-10-17T23:06:07.769Z,102152.97
2022-10-17T23:08:34.239Z,102159.16
2022-10-17T23:11:01.068Z,102150.69
2022-10-17T23:13:27.528Z,102148.78
2022-10-17T23:15:55.634Z,102154.00
2022-10-17T23:18:23.188Z,102153.78
2022-10-17T23:20:50.097Z,102158.97
2022-10-17T23:23:16.663Z,102165.03
2022-10-17T23:25:43.845Z,102154.69
2022-10-17T23:28:10.981Z,102155.34
2022-10-17T23:30:38.939Z,102157.41
2022-10-17T23:33:05.980Z,102154.66
2022-10-17T23:35:33.085Z,102154.19
2022-10-17T23:37:59.614Z,102149.00
2022-10-17T23:40:26.310Z,102162.09
2022-10-17T23:42:52.762Z,102169.28
2022-10-17T23:45:19.238Z,102167.59
2022-10-17T23:47:45.735Z,102162.59
2022-10-17T23:50:12.476Z,102166.00
2022-10-17T23:52:39.203Z,102161.28
2022-10-17T23:55:06.295Z,102161.59
2022-10-17T23:57:33.057Z,102162.47
2022-10-17T23:59:59.729Z,102155.88
